createdAt,value
2019-04-03T00:01:42.937Z,16.90
2019-04-03T00:04:09.097Z,16.90
2019-04-03T00:06:35.810Z,16.90
2019-04-03T00:09:01.445Z,16.90
2019-04-03T00:11:27.674Z,16.90
2019-04-03T00:13:53.778Z,16.90
2019-04-03T00:16:19.939Z,16.90
2019-04-03T00:18:47.570Z,16.90
2019-04-03T00:21:12.397Z,16.90
2019-04-03T00:23:38.482Z,16.90
2019-04-03T00:26:04.645Z,16.90
2019-04-03T00:28:30.796Z,16.90
2019-04-03T00:30:56.952Z,16.90
2019-04-03T00:33:23.893Z,16.90
2019-04-03T00:35:49.486Z,16.90
2019-04-03T00:38:15.675Z,16.90
2019-04-03T00:40:41.829Z,16.90
2019-04-03T00:43:07.977Z,16.90
2019-04-03T00:45:34.889Z,16.90
2019-04-03T00:48:01.051Z,16.90
2019-04-03T00:50:27.227Z,16.90
2019-04-03T00:52:53.384Z,16.90
2019-04-03T00:55:19.538Z,16.90
2019-04-03T00:57:46.457Z,16.90
2019-04-03T01:00:12.800Z,16.90
2019-04-03T01:02:38.812Z,16.90
2019-04-03T01:05:04.960Z,16.90
2019-04-03T01:07:31.130Z,16.90
2019-04-03T01:09:57.801Z,16.90
2019-04-03T01:12:24.257Z,16.90
2019-04-03T01:14:50.402Z,16.80
2019-04-03T01:17:16.580Z,16.90
2019-04-03T01:19:42.736Z,16.80
2019-04-03T01:22:08.904Z,16.90
2019-04-03T01:24:35.058Z,16.90
2019-04-03T01:27:01.310Z,16.90
2019-04-03T01:29:27.420Z,16.90
2019-04-03T01:31:53.599Z,16.90
2019-04-03T01:34:19.904Z,16.90
2019-04-03T01:36:46.582Z,16.90
2019-04-03T01:39:12.267Z,16.90
2019-04-03T01:41:38.440Z,16.80
2019-04-03T01:44:04.603Z,16.80
2019-04-03T01:46:30.760Z,16.80
2019-04-03T01:48:58.612Z,16.80
2019-04-03T01:51:23.109Z,16.90
2019-04-03T01:53:49.257Z,16.80
2019-04-03T01:56:15.417Z,16.80
2019-04-03T01:58:41.565Z,16.80
2019-04-03T02:01:08.029Z,16.80
2019-04-03T02:03:33.905Z,16.80
2019-04-03T02:06:00.053Z,16.80
2019-04-03T02:08:26.202Z,16.80
2019-04-03T02:10:52.361Z,16.80
2019-04-03T02:13:21.211Z,16.80
2019-04-03T02:15:44.701Z,16.80
2019-04-03T02:18:10.868Z,16.80
2019-04-03T02:20:37.008Z,16.80
2019-04-03T02:23:03.174Z,16.80
2019-04-03T02:25:31.552Z,16.80
2019-04-03T02:27:55.725Z,16.80
2019-04-03T02:30:21.735Z,16.80
2019-04-03T02:32:48.410Z,16.80
2019-04-03T02:35:14.090Z,16.80
2019-04-03T02:37:40.521Z,16.80
2019-04-03T02:40:07.237Z,16.80
2019-04-03T02:42:33.867Z,16.80
2019-04-03T02:44:59.763Z,16.80
2019-04-03T02:47:25.925Z,16.70
2019-04-03T02:49:52.079Z,16.70
2019-04-03T02:52:18.317Z,16.80
2019-04-03T02:54:44.460Z,16.80
2019-04-03T02:57:10.610Z,16.70
2019-04-03T02:59:36.764Z,16.70
2019-04-03T03:02:03.707Z,16.70
2019-04-03T03:04:29.854Z,16.70
2019-04-03T03:06:56.032Z,16.70
2019-04-03T03:09:22.192Z,16.70
2019-04-03T03:11:48.389Z,16.70
2019-04-03T03:14:15.167Z,16.70
2019-04-03T03:16:41.158Z,16.70
2019-04-03T03:19:07.354Z,16.70
2019-04-03T03:21:33.660Z,16.70
2019-04-03T03:24:00.072Z,16.70
2019-04-03T03:26:25.873Z,16.70
2019-04-03T03:28:52.082Z,16.70
2019-04-03T03:31:19.121Z,16.70
2019-04-03T03:33:44.571Z,16.70
2019-04-03T03:36:11.283Z,16.70
2019-04-03T03:38:39.463Z,16.70
2019-04-03T03:41:03.453Z,16.70
2019-04-03T03:43:29.438Z,16.70
2019-04-03T03:45:55.716Z,16.70
2019-04-03T03:48:21.816Z,16.70
2019-04-03T03:50:47.967Z,16.70
2019-04-03T03:53:14.909Z,16.70
2019-04-03T03:55:41.057Z,16.70
2019-04-03T03:58:11.000Z,16.70
2019-04-03T04:00:33.424Z,16.70
2019-04-03T04:02:59.796Z,16.70
2019-04-03T04:05:26.029Z,16.70
2019-04-03T04:07:52.088Z,16.70
2019-04-03T04:10:18.177Z,16.70
2019-04-03T04:12:44.344Z,16.60
2019-04-03T04:15:10.841Z,16.60
2019-04-03T04:17:38.035Z,16.70
2019-04-03T04:20:05.605Z,16.70
2019-04-03T04:22:30.284Z,16.70
2019-04-03T04:24:58.592Z,16.70
2019-04-03T04:27:22.583Z,16.70
2019-04-03T04:29:48.919Z,16.70
2019-04-03T04:32:15.377Z,16.60
2019-04-03T04:34:41.133Z,16.70
2019-04-03T04:37:07.281Z,16.70
2019-04-03T04:39:33.625Z,16.60
2019-04-03T04:41:59.637Z,16.60
2019-04-03T04:44:25.940Z,16.60
2019-04-03T04:46:51.984Z,16.60
2019-04-03T04:49:18.219Z,16.60
2019-04-03T04:51:44.363Z,16.60
2019-04-03T04:54:10.553Z,16.60
2019-04-03T04:56:37.816Z,16.60
2019-04-03T04:59:02.907Z,16.60
2019-04-03T05:01:29.061Z,16.60
2019-04-03T05:03:55.225Z,16.60
2019-04-03T05:06:21.384Z,16.60
2019-04-03T05:08:47.529Z,16.60
2019-04-03T05:11:13.741Z,16.60
2019-04-03T05:13:40.092Z,16.60
2019-04-03T05:16:06.067Z,16.60
2019-04-03T05:18:32.224Z,16.60
2019-04-03T05:20:58.584Z,16.60
2019-04-03T05:23:25.675Z,16.60
2019-04-03T05:25:51.521Z,16.60
2019-04-03T05:28:17.675Z,16.60
2019-04-03T05:30:43.835Z,16.60
2019-04-03T05:33:11.464Z,16.60
2019-04-03T05:35:37.587Z,16.60
2019-04-03T05:38:02.382Z,16.60
2019-04-03T05:40:28.555Z,16.60
2019-04-03T05:42:54.946Z,16.60
2019-04-03T05:45:20.913Z,16.60
2019-04-03T05:47:47.052Z,16.60
2019-04-03T05:50:13.224Z,16.60
2019-04-03T05:52:39.421Z,16.60
2019-04-03T05:55:05.588Z,16.60
2019-04-03T05:57:31.733Z,16.60
2019-04-03T06:00:00.533Z,16.60
2019-04-03T06:02:24.106Z,16.60
2019-04-03T06:04:50.320Z,16.60
2019-04-03T06:07:18.198Z,16.60
2019-04-03T06:09:42.646Z,16.60
2019-04-03T06:12:09.411Z,16.60
2019-04-03T06:14:34.989Z,16.60
2019-04-03T06:17:01.141Z,16.60
2019-04-03T06:19:27.293Z,16.60
2019-04-03T06:21:53.474Z,16.50
2019-04-03T06:24:19.621Z,16.60
2019-04-03T06:26:45.867Z,16.60
2019-04-03T06:29:11.958Z,16.50
2019-04-03T06:31:38.106Z,16.60
2019-04-03T06:34:06.665Z,16.60
2019-04-03T06:36:30.452Z,16.60
2019-04-03T06:38:57.406Z,16.60
2019-04-03T06:41:22.817Z,16.60
2019-04-03T06:43:50.153Z,16.60
2019-04-03T06:46:15.176Z,16.60
2019-04-03T06:48:41.707Z,16.60
2019-04-03T06:51:08.335Z,16.60
2019-04-03T06:53:34.480Z,16.50
2019-04-03T06:56:00.646Z,16.60
2019-04-03T06:58:36.822Z,16.60
2019-04-03T07:00:54.719Z,16.60
2019-04-03T07:03:22.031Z,16.60
2019-04-03T07:05:45.364Z,16.50
2019-04-03T07:08:11.590Z,16.60
2019-04-03T07:10:40.160Z,16.50
2019-04-03T07:13:03.915Z,16.50
2019-04-03T07:15:30.081Z,16.60
2019-04-03T07:17:56.231Z,16.50
2019-04-03T07:20:22.402Z,16.60
2019-04-03T07:22:48.714Z,16.50
2019-04-03T07:25:14.874Z,16.50
2019-04-03T07:27:42.261Z,16.50
2019-04-03T07:30:07.233Z,16.60
2019-04-03T07:32:33.545Z,16.60
2019-04-03T07:35:00.030Z,16.50
2019-04-03T07:37:26.680Z,16.60
2019-04-03T07:39:52.981Z,16.50
2019-04-03T07:42:19.149Z,16.50
2019-04-03T07:44:45.294Z,16.60
2019-04-03T07:47:11.459Z,16.50
2019-04-03T07:49:39.086Z,16.50
2019-04-03T07:52:03.816Z,16.50
2019-04-03T07:54:30.171Z,16.50
2019-04-03T07:56:57.638Z,16.50
2019-04-03T07:59:22.360Z,16.50
2019-04-03T08:01:48.518Z,16.50
2019-04-03T08:04:16.101Z,16.50
2019-04-03T08:06:40.857Z,16.50
2019-04-03T08:09:09.567Z,16.50
2019-04-03T08:11:33.563Z,16.40
2019-04-03T08:13:59.408Z,16.50
2019-04-03T08:16:25.560Z,16.50
2019-04-03T08:18:52.476Z,16.50
2019-04-03T08:21:17.911Z,16.50
2019-04-03T08:23:44.066Z,16.50
2019-04-03T08:26:11.810Z,16.50
2019-04-03T08:28:36.588Z,16.50
2019-04-03T08:31:02.617Z,16.50
2019-04-03T08:33:28.795Z,16.50
2019-04-03T08:35:55.715Z,16.50
2019-04-03T08:38:21.910Z,16.50
2019-04-03T08:40:48.099Z,16.50
2019-04-03T08:43:14.287Z,16.50
2019-04-03T08:45:40.645Z,16.50
2019-04-03T08:48:07.294Z,16.50
2019-04-03T08:50:32.823Z,16.50
2019-04-03T08:52:59.188Z,16.50
2019-04-03T08:55:25.160Z,16.50
2019-04-03T08:57:52.540Z,16.50
2019-04-03T09:00:17.514Z,16.50
2019-04-03T09:02:44.118Z,16.50
2019-04-03T09:05:09.888Z,16.50
2019-04-03T09:07:36.041Z,16.50
2019-04-03T09:10:02.224Z,16.50
2019-04-03T09:12:29.149Z,16.50
2019-04-03T09:14:57.022Z,16.50
2019-04-03T09:17:21.496Z,16.50
2019-04-03T09:19:47.653Z,16.50
2019-04-03T09:22:13.808Z,16.50
2019-04-03T09:24:39.961Z,16.50
2019-04-03T09:27:08.217Z,16.50
2019-04-03T09:29:32.310Z,16.50
2019-04-03T09:31:58.468Z,16.50
2019-04-03T09:34:24.623Z,16.50
2019-04-03T09:36:50.894Z,16.50
2019-04-03T09:39:16.960Z,16.50
2019-04-03T09:41:43.110Z,16.50
2019-04-03T09:44:09.275Z,16.50
2019-04-03T09:46:35.483Z,16.50
2019-04-03T09:49:01.686Z,16.50
2019-04-03T09:51:27.987Z,16.50
2019-04-03T09:53:54.045Z,16.50
2019-04-03T09:56:20.198Z,16.50
2019-04-03T09:58:46.346Z,16.50
2019-04-03T10:01:15.737Z,16.50
2019-04-03T10:03:38.701Z,16.50
2019-04-03T10:06:04.886Z,16.50
2019-04-03T10:08:31.067Z,16.50
2019-04-03T10:10:57.212Z,16.50
2019-04-03T10:13:25.895Z,16.50
2019-04-03T10:15:49.548Z,16.50
2019-04-03T10:18:16.467Z,16.50
2019-04-03T10:20:42.634Z,16.50
2019-04-03T10:23:08.796Z,16.50
2019-04-03T10:25:37.077Z,16.50
2019-04-03T10:28:01.151Z,16.50
2019-04-03T10:30:27.444Z,16.50
2019-04-03T10:32:53.610Z,16.50
2019-04-03T10:35:19.702Z,16.50
2019-04-03T10:37:47.051Z,16.50
2019-04-03T10:40:12.040Z,16.50
2019-04-03T10:42:38.195Z,16.60
2019-04-03T10:45:04.340Z,16.50
2019-04-03T10:47:41.354Z,16.50
2019-04-03T10:49:57.446Z,16.50
2019-04-03T10:52:23.818Z,16.50
2019-04-03T10:54:49.637Z,16.60
2019-04-03T10:57:15.780Z,16.60
2019-04-03T10:59:41.965Z,16.60
2019-04-03T11:02:08.397Z,16.60
2019-04-03T11:04:34.323Z,16.60
2019-04-03T11:07:00.472Z,16.50
2019-04-03T11:09:26.852Z,16.50
2019-04-03T11:11:52.861Z,16.60
2019-04-03T11:14:19.059Z,16.60
2019-04-03T11:16:46.499Z,16.60
2019-04-03T11:19:12.284Z,16.60
2019-04-03T11:21:38.652Z,16.50
2019-04-03T11:24:06.654Z,16.50
2019-04-03T11:26:31.032Z,16.60
2019-04-03T11:28:57.336Z,16.50
2019-04-03T11:31:26.976Z,16.60
2019-04-03T11:33:51.238Z,16.60
2019-04-03T11:36:15.581Z,16.60
2019-04-03T11:38:41.729Z,16.60
2019-04-03T11:41:14.483Z,16.60
2019-04-03T11:43:34.950Z,16.60
2019-04-03T11:46:01.469Z,16.50
2019-04-03T11:48:27.733Z,16.60
2019-04-03T11:50:56.119Z,16.60
2019-04-03T11:53:19.674Z,16.60
2019-04-03T11:55:45.835Z,16.60
2019-04-03T11:58:11.985Z,16.50
2019-04-03T12:00:38.141Z,16.60
2019-04-03T12:03:04.574Z,16.60
2019-04-03T12:05:30.487Z,16.60
2019-04-03T12:07:57.405Z,16.60
2019-04-03T12:10:25.032Z,16.60
2019-04-03T12:12:49.230Z,16.60
2019-04-03T12:15:16.437Z,16.60
2019-04-03T12:17:41.432Z,16.60
2019-04-03T12:20:09.160Z,16.60
2019-04-03T12:22:34.097Z,16.60
2019-04-03T12:25:00.745Z,16.60
2019-04-03T12:27:26.917Z,16.60
2019-04-03T12:29:54.858Z,16.60
2019-04-03T12:32:19.393Z,16.60
2019-04-03T12:34:45.446Z,16.60
2019-04-03T12:37:11.610Z,16.60
2019-04-03T12:39:37.916Z,16.60
2019-04-03T12:42:04.065Z,16.60
2019-04-03T12:44:30.224Z,16.60
2019-04-03T12:46:56.383Z,16.60
2019-04-03T12:49:23.648Z,16.60
2019-04-03T12:51:48.848Z,16.60
2019-04-03T12:54:14.996Z,16.60
2019-04-03T12:56:41.471Z,16.60
2019-04-03T12:59:09.166Z,16.60
2019-04-03T13:01:33.506Z,16.60
2019-04-03T13:03:59.657Z,16.60
2019-04-03T13:06:25.812Z,16.60
2019-04-03T13:08:51.970Z,16.60
2019-04-03T13:11:19.939Z,16.60
2019-04-03T13:13:44.327Z,16.60
2019-04-03T13:16:11.085Z,16.60
2019-04-03T13:18:36.679Z,16.60
2019-04-03T13:21:03.191Z,16.60
2019-04-03T13:23:29.803Z,16.60
2019-04-03T13:25:56.251Z,16.60
2019-04-03T13:28:22.154Z,16.60
2019-04-03T13:30:48.481Z,16.60
2019-04-03T13:33:16.711Z,16.60
2019-04-03T13:35:40.999Z,16.60
2019-04-03T13:38:06.911Z,16.60
2019-04-03T13:40:33.103Z,16.60
2019-04-03T13:42:59.583Z,16.60
2019-04-03T13:45:25.737Z,16.60
2019-04-03T13:47:51.613Z,16.60
2019-04-03T13:50:17.764Z,16.60
2019-04-03T13:52:48.449Z,16.60
2019-04-03T13:55:10.104Z,16.60
2019-04-03T13:57:36.290Z,16.60
2019-04-03T14:00:16.272Z,16.60
2019-04-03T14:02:29.806Z,16.50
2019-04-03T14:04:56.585Z,16.60
2019-04-03T14:07:22.177Z,16.60
2019-04-03T14:09:52.635Z,16.50
2019-04-03T14:12:16.539Z,16.60
2019-04-03T14:14:40.749Z,16.60
2019-04-03T14:17:07.069Z,16.60
2019-04-03T14:19:42.654Z,16.60
2019-04-03T14:22:00.612Z,16.60
2019-04-03T14:24:37.620Z,16.60
2019-04-03T14:26:51.324Z,16.60
2019-04-03T14:29:17.485Z,16.50
2019-04-03T14:31:43.663Z,16.60
2019-04-03T14:34:09.830Z,16.60
2019-04-03T14:36:35.976Z,16.60
2019-04-03T14:39:03.497Z,16.50
2019-04-03T14:41:28.330Z,16.60
2019-04-03T14:43:54.505Z,16.60
2019-04-03T14:46:20.649Z,16.60
2019-04-03T14:48:46.971Z,16.60
2019-04-03T14:51:13.008Z,16.60
2019-04-03T14:53:39.349Z,16.60
2019-04-03T14:56:05.501Z,16.60
2019-04-03T14:58:31.829Z,16.60
2019-04-03T15:00:57.864Z,16.60
2019-04-03T15:03:24.036Z,16.60
2019-04-03T15:05:51.275Z,16.60
2019-04-03T15:08:17.291Z,16.60
2019-04-03T15:10:43.376Z,16.60
2019-04-03T15:13:12.631Z,16.60
2019-04-03T15:15:35.752Z,16.60
2019-04-03T15:18:02.182Z,16.50
2019-04-03T15:20:28.419Z,16.60
2019-04-03T15:22:54.317Z,16.60
2019-04-03T15:25:20.892Z,16.50
2019-04-03T15:27:47.441Z,16.60
2019-04-03T15:30:13.600Z,16.50
2019-04-03T15:32:40.189Z,16.60
2019-04-03T15:35:05.969Z,16.60
2019-04-03T15:37:32.492Z,16.60
2019-04-03T15:39:59.125Z,16.60
2019-04-03T15:42:24.528Z,16.60
2019-04-03T15:44:52.072Z,16.60
2019-04-03T15:47:23.391Z,16.60
2019-04-03T15:49:43.469Z,16.60
2019-04-03T15:52:11.104Z,16.60
2019-04-03T15:54:35.865Z,16.60
2019-04-03T15:57:02.110Z,16.60
2019-04-03T15:59:29.715Z,16.60
2019-04-03T16:01:54.766Z,16.60
2019-04-03T16:04:21.681Z,16.60
2019-04-03T16:06:48.336Z,16.60
2019-04-03T16:09:17.183Z,16.50
2019-04-03T16:11:40.699Z,16.50
2019-04-03T16:14:07.151Z,16.50
2019-04-03T16:16:33.049Z,16.60
2019-04-03T16:18:59.500Z,16.60
2019-04-03T16:21:25.426Z,16.60
2019-04-03T16:23:51.588Z,16.50
2019-04-03T16:26:18.223Z,16.50
2019-04-03T16:28:44.234Z,16.50
2019-04-03T16:31:10.649Z,16.60
2019-04-03T16:33:37.529Z,16.60
2019-04-03T16:36:03.078Z,16.50
2019-04-03T16:38:29.699Z,16.50
2019-04-03T16:40:55.914Z,16.50
2019-04-03T16:43:23.255Z,16.50
2019-04-03T16:45:48.272Z,16.50
2019-04-03T16:48:16.851Z,16.50
2019-04-03T16:50:40.670Z,16.50
2019-04-03T16:53:07.467Z,16.50
2019-04-03T16:55:33.021Z,16.50
2019-04-03T16:57:59.633Z,16.50
2019-04-03T17:00:25.410Z,16.50
2019-04-03T17:02:51.932Z,16.50
2019-04-03T17:05:17.784Z,16.50
2019-04-03T17:07:44.042Z,16.50
2019-04-03T17:10:10.699Z,16.50
2019-04-03T17:12:36.370Z,16.50
2019-04-03T17:15:02.543Z,16.50
2019-04-03T17:17:29.210Z,16.50
2019-04-03T17:19:55.516Z,16.50
2019-04-03T17:22:21.273Z,16.50
2019-04-03T17:24:49.486Z,16.50
2019-04-03T17:27:13.635Z,16.50
2019-04-03T17:29:39.787Z,16.50
2019-04-03T17:32:08.230Z,16.50
2019-04-03T17:34:32.727Z,16.50
2019-04-03T17:36:58.337Z,16.50
2019-04-03T17:39:24.494Z,16.50
2019-04-03T17:41:50.649Z,16.40
2019-04-03T17:44:16.801Z,16.50
2019-04-03T17:46:42.948Z,16.50
2019-04-03T17:49:10.874Z,16.50
2019-04-03T17:51:37.023Z,16.50
2019-04-03T17:54:03.168Z,16.50
2019-04-03T17:56:29.322Z,16.50
2019-04-03T17:58:55.482Z,16.40
2019-04-03T18:01:22.474Z,16.50
2019-04-03T18:03:49.562Z,16.50
2019-04-03T18:06:14.020Z,16.40
2019-04-03T18:08:40.170Z,16.40
2019-04-03T18:11:06.319Z,16.40
2019-04-03T18:13:32.494Z,16.40
2019-04-03T18:15:58.961Z,16.40
2019-04-03T18:18:24.876Z,16.40
2019-04-03T18:20:51.033Z,16.40
2019-04-03T18:23:17.184Z,16.40
2019-04-03T18:25:44.089Z,16.40
2019-04-03T18:28:10.257Z,16.40
2019-04-03T18:30:36.415Z,16.40
2019-04-03T18:33:05.576Z,16.40
2019-04-03T18:35:28.768Z,16.40
2019-04-03T18:37:54.931Z,16.40
2019-04-03T18:40:21.086Z,16.40
2019-04-03T18:42:49.489Z,16.40
2019-04-03T18:45:24.656Z,16.40
2019-04-03T18:47:41.631Z,16.40
2019-04-03T18:50:05.853Z,16.40
2019-04-03T18:52:32.020Z,16.40
2019-04-03T18:54:58.189Z,16.40
2019-04-03T18:57:24.341Z,16.40
2019-04-03T18:59:50.486Z,16.40
2019-04-03T19:02:16.648Z,16.40
2019-04-03T19:04:42.798Z,16.40
2019-04-03T19:07:08.965Z,16.40
2019-04-03T19:09:35.116Z,16.40
2019-04-03T19:12:08.317Z,16.40
2019-04-03T19:14:31.519Z,16.40
2019-04-03T19:16:54.767Z,16.40
2019-04-03T19:19:22.963Z,16.40
2019-04-03T19:21:46.877Z,16.40
2019-04-03T19:24:13.087Z,16.40
2019-04-03T19:26:39.230Z,16.40
2019-04-03T19:29:05.695Z,16.40
2019-04-03T19:31:31.591Z,16.40
2019-04-03T19:33:57.749Z,16.30
2019-04-03T19:36:24.092Z,16.40
2019-04-03T19:38:50.265Z,16.40
2019-04-03T19:41:16.437Z,16.40
2019-04-03T19:43:44.010Z,16.40
2019-04-03T19:46:08.772Z,16.40
2019-04-03T19:48:34.932Z,16.40
2019-04-03T19:51:03.367Z,16.40
2019-04-03T19:53:27.323Z,16.40
2019-04-03T19:55:54.792Z,16.40
2019-04-03T19:58:19.674Z,16.40
2019-04-03T20:00:45.825Z,16.30
2019-04-03T20:03:13.799Z,16.40
2019-04-03T20:05:38.184Z,16.30
2019-04-03T20:08:04.349Z,16.40
2019-04-03T20:10:33.616Z,16.30
2019-04-03T20:12:56.708Z,16.30
2019-04-03T20:15:23.353Z,16.30
2019-04-03T20:17:49.073Z,16.30
2019-04-03T20:20:15.991Z,16.30
2019-04-03T20:22:42.735Z,16.30
2019-04-03T20:25:08.372Z,16.30
2019-04-03T20:27:34.785Z,16.30
2019-04-03T20:30:01.456Z,16.30
2019-04-03T20:32:27.097Z,16.30
2019-04-03T20:34:53.260Z,16.30
2019-04-03T20:37:19.438Z,16.30
2019-04-03T20:39:45.597Z,16.30
2019-04-03T20:42:11.768Z,16.30
2019-04-03T20:44:39.134Z,16.30
2019-04-03T20:47:04.888Z,16.30
2019-04-03T20:49:31.057Z,16.30
2019-04-03T20:51:57.239Z,16.30
2019-04-03T20:54:23.395Z,16.30
2019-04-03T20:56:57.817Z,16.30
2019-04-03T20:59:15.751Z,16.30
2019-04-03T21:01:41.901Z,16.30
2019-04-03T21:04:08.063Z,16.30
2019-04-03T21:06:37.032Z,16.30
2019-04-03T21:09:00.408Z,16.30
2019-04-03T21:11:26.558Z,16.30
2019-04-03T21:13:52.714Z,16.30
2019-04-03T21:16:19.635Z,16.30
2019-04-03T21:18:45.795Z,16.30
2019-04-03T21:21:11.948Z,16.30
2019-04-03T21:23:38.109Z,16.30
2019-04-03T21:26:06.678Z,16.30
2019-04-03T21:28:30.456Z,16.30
2019-04-03T21:30:56.613Z,16.30
2019-04-03T21:33:22.765Z,16.30
2019-04-03T21:35:48.914Z,16.30
2019-04-03T21:38:15.074Z,16.30
2019-04-03T21:40:41.231Z,16.30
2019-04-03T21:43:08.161Z,16.20
2019-04-03T21:45:34.312Z,16.20
2019-04-03T21:48:00.576Z,16.20
2019-04-03T21:50:26.727Z,16.20
2019-04-03T21:52:53.885Z,16.20
2019-04-03T21:55:19.092Z,16.20
2019-04-03T21:57:45.267Z,16.20
2019-04-03T22:00:14.016Z,16.20
2019-04-03T22:02:38.399Z,16.20
2019-04-03T22:05:07.098Z,16.20
2019-04-03T22:07:30.737Z,16.20
2019-04-03T22:09:56.884Z,16.20
2019-04-03T22:12:23.036Z,16.20
2019-04-03T22:14:49.192Z,16.20
2019-04-03T22:17:15.345Z,16.20
2019-04-03T22:19:41.495Z,16.20
2019-04-03T22:22:07.654Z,16.20
2019-04-03T22:24:33.808Z,16.20
2019-04-03T22:26:59.963Z,16.20
2019-04-03T22:29:26.877Z,16.20
2019-04-03T22:31:54.614Z,16.20
2019-04-03T22:34:20.562Z,16.30
2019-04-03T22:36:46.717Z,16.20
2019-04-03T22:39:13.764Z,16.20
2019-04-03T22:41:39.072Z,16.20
2019-04-03T22:44:05.417Z,16.20
2019-04-03T22:46:31.565Z,16.20
2019-04-03T22:48:58.080Z,16.20
2019-04-03T22:51:23.910Z,16.20
2019-04-03T22:53:50.099Z,16.20
2019-04-03T22:56:16.932Z,16.20
2019-04-03T22:58:42.625Z,16.20
2019-04-03T23:01:08.777Z,16.20
2019-04-03T23:03:34.944Z,16.20
2019-04-03T23:06:01.098Z,16.20
2019-04-03T23:08:27.266Z,16.20
2019-04-03T23:10:53.412Z,16.20
2019-04-03T23:13:19.594Z,16.20
2019-04-03T23:15:45.737Z,16.20
2019-04-03T23:18:13.997Z,16.20
2019-04-03T23:20:38.864Z,16.20
2019-04-03T23:23:05.013Z,16.10
2019-04-03T23:25:31.165Z,16.20
2019-04-03T23:27:57.321Z,16.20
2019-04-03T23:30:23.473Z,16.20
2019-04-03T23:32:49.754Z,16.20
2019-04-03T23:35:16.669Z,16.20
2019-04-03T23:37:42.822Z,16.20
2019-04-03T23:40:08.980Z,16.20
2019-04-03T23:42:35.931Z,16.20
2019-04-03T23:45:01.503Z,16.20
2019-04-03T23:47:27.809Z,16.20
2019-04-03T23:49:53.958Z,16.20
2019-04-03T23:52:20.111Z,16.20
2019-04-03T23:54:46.280Z,16.20
2019-04-03T23:57:12.432Z,16.20
2019-04-03T23:59:39.342Z,16.20
